createdAt,value
2023-05-09T00:01:16.038Z,1.77
2023-05-09T00:03:45.866Z,1.87
2023-05-09T00:06:15.412Z,1.40
2023-05-09T00:08:43.722Z,1.20
2023-05-09T00:11:12.039Z,1.70
2023-05-09T00:13:41.851Z,2.07
2023-05-09T00:16:10.478Z,1.50
2023-05-09T00:18:42.290Z,1.70
2023-05-09T00:21:12.107Z,1.50
2023-05-09T00:23:41.022Z,1.70
2023-05-09T00:26:09.322Z,1.47
2023-05-09T00:28:37.773Z,1.60
2023-05-09T00:31:06.183Z,1.57
2023-05-09T00:33:34.485Z,2.00
2023-05-09T00:36:02.750Z,1.70
2023-05-09T00:38:32.377Z,1.30
2023-05-09T00:41:00.700Z,1.80
2023-05-09T00:43:29.015Z,1.50
2023-05-09T00:45:57.283Z,2.50
2023-05-09T00:48:25.561Z,2.03
2023-05-09T00:50:53.867Z,1.13
2023-05-09T00:53:22.266Z,1.30
2023-05-09T00:55:51.940Z,1.40
2023-05-09T00:58:20.565Z,1.23
2023-05-09T01:00:48.839Z,1.40
2023-05-09T01:03:17.207Z,1.57
2023-05-09T01:05:46.124Z,1.60
2023-05-09T01:08:15.448Z,1.40
2023-05-09T01:10:45.413Z,1.67
2023-05-09T01:13:17.227Z,1.73
2023-05-09T01:15:47.935Z,1.13
2023-05-09T01:18:17.512Z,1.40
2023-05-09T01:20:46.613Z,1.10
2023-05-09T01:23:21.842Z,1.50
2023-05-09T01:25:57.033Z,1.47
2023-05-09T01:28:36.353Z,1.77
2023-05-09T01:31:06.277Z,1.90
2023-05-09T01:33:34.747Z,1.80
2023-05-09T01:36:05.988Z,1.47
2023-05-09T01:38:34.347Z,1.20
2023-05-09T01:41:05.048Z,1.70
2023-05-09T01:43:33.342Z,1.30
2023-05-09T01:46:01.688Z,1.33
2023-05-09T01:48:31.367Z,1.67
2023-05-09T01:50:59.664Z,1.03
2023-05-09T01:53:27.942Z,1.27
2023-05-09T01:55:56.192Z,1.60
2023-05-09T01:58:24.509Z,1.70
2023-05-09T02:00:52.794Z,1.47
2023-05-09T02:03:21.312Z,1.50
2023-05-09T02:05:51.031Z,1.27
2023-05-09T02:08:21.775Z,1.37
2023-05-09T02:10:50.136Z,2.20
2023-05-09T02:13:18.549Z,1.70
2023-05-09T02:15:46.877Z,1.20
2023-05-09T02:18:15.118Z,1.10
2023-05-09T02:20:43.361Z,1.40
2023-05-09T02:23:13.212Z,1.67
2023-05-09T02:25:41.501Z,1.40
2023-05-09T02:28:09.999Z,1.40
2023-05-09T02:30:38.899Z,1.30
2023-05-09T02:33:07.832Z,1.40
2023-05-09T02:35:36.176Z,1.63
2023-05-09T02:38:04.462Z,1.60
2023-05-09T02:40:34.090Z,1.57
2023-05-09T02:43:02.851Z,1.20
2023-05-09T02:45:31.106Z,1.20
2023-05-09T02:47:59.434Z,1.67
2023-05-09T02:50:27.758Z,1.10
2023-05-09T02:52:56.021Z,1.77
2023-05-09T02:55:24.260Z,1.67
2023-05-09T02:58:05.338Z,1.37
2023-05-09T03:00:40.741Z,1.00
2023-05-09T03:03:09.132Z,1.27
2023-05-09T03:05:37.515Z,1.80
2023-05-09T03:08:05.954Z,1.70
2023-05-09T03:10:34.268Z,1.67
2023-05-09T03:13:04.047Z,1.27
2023-05-09T03:15:32.312Z,1.20
2023-05-09T03:18:00.707Z,1.47
2023-05-09T03:20:29.051Z,1.37
2023-05-09T03:22:57.303Z,1.30
2023-05-09T03:25:26.463Z,1.87
2023-05-09T03:27:54.741Z,1.10
2023-05-09T03:30:24.379Z,1.40
2023-05-09T03:32:52.698Z,1.43
2023-05-09T03:35:21.105Z,1.10
2023-05-09T03:37:49.466Z,1.73
2023-05-09T03:40:17.816Z,1.23
2023-05-09T03:42:46.075Z,1.37
2023-05-09T03:45:14.516Z,1.10
2023-05-09T03:47:44.334Z,1.17
2023-05-09T03:50:12.722Z,1.20
2023-05-09T03:52:41.000Z,1.43
2023-05-09T03:55:09.737Z,1.00
2023-05-09T03:57:37.976Z,1.40
2023-05-09T04:00:06.983Z,1.40
2023-05-09T04:02:35.577Z,1.07
2023-05-09T04:05:05.427Z,1.47
2023-05-09T04:07:33.744Z,1.30
2023-05-09T04:10:02.116Z,1.20
2023-05-09T04:12:30.428Z,1.33
2023-05-09T04:14:58.749Z,1.70
2023-05-09T04:17:27.152Z,1.53
2023-05-09T04:19:55.419Z,1.50
2023-05-09T04:22:25.129Z,1.17
2023-05-09T04:24:53.390Z,1.50
2023-05-09T04:27:21.746Z,1.30
2023-05-09T04:29:50.039Z,1.20
2023-05-09T04:32:18.499Z,1.23
2023-05-09T04:34:46.796Z,1.30
2023-05-09T04:37:15.067Z,1.40
2023-05-09T04:39:44.839Z,1.07
2023-05-09T04:42:13.302Z,1.30
2023-05-09T04:44:41.568Z,1.20
2023-05-09T04:47:09.830Z,1.30
2023-05-09T04:49:38.101Z,1.20
2023-05-09T04:52:06.940Z,1.30
2023-05-09T04:54:35.181Z,1.80
2023-05-09T04:57:14.185Z,1.03
2023-05-09T04:59:45.320Z,1.40
2023-05-09T05:02:13.901Z,1.20
2023-05-09T05:04:42.184Z,1.17
2023-05-09T05:07:10.464Z,1.30
2023-05-09T05:09:38.751Z,0.90
2023-05-09T05:12:09.767Z,1.20
2023-05-09T05:14:38.280Z,1.20
2023-05-09T05:17:06.577Z,1.27
2023-05-09T05:19:35.109Z,0.97
2023-05-09T05:22:03.397Z,1.23
2023-05-09T05:24:31.725Z,1.40
2023-05-09T05:26:59.979Z,1.27
2023-05-09T05:29:29.623Z,1.40
2023-05-09T05:31:58.048Z,1.07
2023-05-09T05:34:26.464Z,1.27
2023-05-09T05:36:54.757Z,1.50
2023-05-09T05:39:23.088Z,1.67
2023-05-09T05:41:52.044Z,4.47
2023-05-09T05:44:20.444Z,5.70
2023-05-09T05:46:50.085Z,6.87
2023-05-09T05:49:18.343Z,13.23
2023-05-09T05:51:46.641Z,14.30
2023-05-09T05:54:14.924Z,24.70
2023-05-09T05:56:43.190Z,20.23
2023-05-09T05:59:13.238Z,24.97
2023-05-09T06:01:42.038Z,20.50
2023-05-09T06:04:11.931Z,25.77
2023-05-09T06:06:40.322Z,29.53
2023-05-09T06:09:08.636Z,25.50
2023-05-09T06:11:36.899Z,23.40
2023-05-09T06:14:05.143Z,21.07
2023-05-09T06:16:33.456Z,19.83
2023-05-09T06:19:01.760Z,19.77
2023-05-09T06:21:31.421Z,12.37
2023-05-09T06:24:08.467Z,7.80
2023-05-09T06:26:40.514Z,8.73
2023-05-09T06:29:08.818Z,7.30
2023-05-09T06:31:38.747Z,7.17
2023-05-09T06:34:07.501Z,6.70
2023-05-09T06:36:37.137Z,4.93
2023-05-09T06:39:05.513Z,4.77
2023-05-09T06:41:33.797Z,3.50
2023-05-09T06:44:03.185Z,3.10
2023-05-09T06:46:31.446Z,3.67
2023-05-09T06:49:01.703Z,3.10
2023-05-09T06:51:30.003Z,3.67
2023-05-09T06:53:59.714Z,3.00
2023-05-09T06:56:27.972Z,3.13
2023-05-09T06:58:56.275Z,2.70
2023-05-09T07:01:24.579Z,2.73
2023-05-09T07:03:52.848Z,1.93
2023-05-09T07:06:21.406Z,2.47
2023-05-09T07:08:49.664Z,2.13
2023-05-09T07:11:19.282Z,2.27
2023-05-09T07:13:47.607Z,1.93
2023-05-09T07:16:15.940Z,2.40
2023-05-09T07:18:44.227Z,1.70
2023-05-09T07:21:12.502Z,1.90
2023-05-09T07:23:40.758Z,2.17
2023-05-09T07:26:09.047Z,2.30
2023-05-09T07:28:39.027Z,1.97
2023-05-09T07:31:07.325Z,1.63
2023-05-09T07:33:35.682Z,1.40
2023-05-09T07:36:03.960Z,1.60
2023-05-09T07:38:32.816Z,1.43
2023-05-09T07:41:01.194Z,1.63
2023-05-09T07:43:29.619Z,2.17
2023-05-09T07:45:59.325Z,1.60
2023-05-09T07:48:27.654Z,1.13
2023-05-09T07:50:55.979Z,2.13
2023-05-09T07:53:24.330Z,1.50
2023-05-09T07:55:52.918Z,1.30
2023-05-09T07:58:21.372Z,1.30
2023-05-09T08:00:49.660Z,1.43
2023-05-09T08:03:20.876Z,1.13
2023-05-09T08:05:49.298Z,1.27
2023-05-09T08:08:17.563Z,1.63
2023-05-09T08:10:45.856Z,1.00
2023-05-09T08:13:14.163Z,1.00
2023-05-09T08:15:42.492Z,0.97
2023-05-09T08:18:10.822Z,1.10
2023-05-09T08:20:40.478Z,0.90
2023-05-09T08:23:08.962Z,0.83
2023-05-09T08:25:37.264Z,1.23
2023-05-09T08:28:05.854Z,0.93
2023-05-09T08:30:34.153Z,1.00
2023-05-09T08:33:02.490Z,1.10
2023-05-09T08:35:30.872Z,0.80
2023-05-09T08:38:00.702Z,1.20
2023-05-09T08:40:29.012Z,0.80
2023-05-09T08:42:57.296Z,1.00
2023-05-09T08:45:27.796Z,0.83
2023-05-09T08:47:56.159Z,1.10
2023-05-09T08:50:24.573Z,1.10
2023-05-09T08:52:53.299Z,1.20
2023-05-09T08:55:23.063Z,0.90
2023-05-09T08:57:51.417Z,1.33
2023-05-09T09:00:21.092Z,0.87
2023-05-09T09:02:49.951Z,0.90
2023-05-09T09:05:39.434Z,1.20
2023-05-09T09:08:08.443Z,1.07
2023-05-09T09:10:38.050Z,1.20
2023-05-09T09:13:06.421Z,0.93
2023-05-09T09:15:36.302Z,0.60
2023-05-09T09:18:07.974Z,0.73
2023-05-09T09:20:36.417Z,0.50
2023-05-09T09:23:05.709Z,1.00
2023-05-09T09:25:34.009Z,0.70
2023-05-09T09:28:03.665Z,1.33
2023-05-09T09:30:31.939Z,0.60
2023-05-09T09:33:00.576Z,1.00
2023-05-09T09:35:28.952Z,0.77
2023-05-09T09:38:00.258Z,1.20
2023-05-09T09:40:28.737Z,0.83
2023-05-09T09:42:57.028Z,0.60
2023-05-09T09:45:27.770Z,0.90
2023-05-09T09:47:56.154Z,0.60
2023-05-09T09:50:25.525Z,0.90
2023-05-09T09:52:54.133Z,0.80
2023-05-09T09:55:23.084Z,0.90
2023-05-09T09:57:51.367Z,0.80
2023-05-09T10:00:20.295Z,0.50
2023-05-09T10:02:50.450Z,1.20
2023-05-09T10:05:25.434Z,0.80
2023-05-09T10:07:56.044Z,0.70
2023-05-09T10:10:24.624Z,0.73
2023-05-09T10:12:52.952Z,0.80
2023-05-09T10:15:21.831Z,0.77
2023-05-09T10:17:52.114Z,1.13
2023-05-09T10:20:20.551Z,1.10
2023-05-09T10:22:48.890Z,0.73
2023-05-09T10:25:19.148Z,0.70
2023-05-09T10:27:47.673Z,0.90
2023-05-09T10:30:16.999Z,0.87
2023-05-09T10:32:47.923Z,1.03
2023-05-09T10:35:18.532Z,0.67
2023-05-09T10:37:46.930Z,0.83
2023-05-09T10:40:15.686Z,1.27
2023-05-09T10:42:44.500Z,1.03
2023-05-09T10:45:13.550Z,0.60
2023-05-09T10:47:42.300Z,0.90
2023-05-09T10:50:11.058Z,1.00
2023-05-09T10:52:54.219Z,0.60
2023-05-09T10:55:24.445Z,0.90
2023-05-09T10:57:55.057Z,0.67
2023-05-09T11:00:26.269Z,0.60
2023-05-09T11:03:07.773Z,0.50
2023-05-09T11:05:40.387Z,0.80
2023-05-09T11:08:21.683Z,0.80
2023-05-09T11:10:51.391Z,0.90
2023-05-09T11:13:23.544Z,0.70
2023-05-09T11:15:52.786Z,1.20
2023-05-09T11:18:21.130Z,0.80
2023-05-09T11:20:51.394Z,1.20
2023-05-09T11:23:20.017Z,1.00
2023-05-09T11:25:48.366Z,0.90
2023-05-09T11:28:29.278Z,1.10
2023-05-09T11:31:10.093Z,0.93
2023-05-09T11:33:38.549Z,0.77
2023-05-09T11:36:28.070Z,1.00
2023-05-09T11:39:06.507Z,0.80
2023-05-09T11:41:39.809Z,0.60
2023-05-09T11:44:15.653Z,0.60
2023-05-09T11:46:44.169Z,0.60
2023-05-09T11:49:12.572Z,0.90
2023-05-09T11:51:41.313Z,0.90
2023-05-09T11:54:11.300Z,0.90
2023-05-09T11:56:40.225Z,0.60
2023-05-09T11:59:08.529Z,0.70
2023-05-09T12:01:38.348Z,0.60
2023-05-09T12:04:08.128Z,0.67
2023-05-09T12:06:37.770Z,1.00
2023-05-09T12:09:06.736Z,0.60
2023-05-09T12:11:37.071Z,0.60
2023-05-09T12:14:05.394Z,0.63
2023-05-09T12:16:33.749Z,0.67
2023-05-09T12:19:05.142Z,0.93
2023-05-09T12:21:33.645Z,0.70
2023-05-09T12:24:02.148Z,0.87
2023-05-09T12:26:30.432Z,0.87
2023-05-09T12:28:58.704Z,0.73
2023-05-09T12:31:26.976Z,0.70
2023-05-09T12:33:55.268Z,0.60
2023-05-09T12:36:25.110Z,0.73
2023-05-09T12:38:56.345Z,0.90
2023-05-09T12:43:55.884Z,0.70
2023-05-09T12:46:24.313Z,0.60
2023-05-09T12:48:52.736Z,0.63
2023-05-09T12:51:21.596Z,0.50
2023-05-09T12:53:51.339Z,0.80
2023-05-09T12:56:20.210Z,0.73
2023-05-09T12:58:52.212Z,0.70
2023-05-09T13:01:20.673Z,0.63
2023-05-09T13:03:52.839Z,0.80
2023-05-09T13:06:21.685Z,0.80
2023-05-09T13:09:01.290Z,0.70
2023-05-09T13:11:29.794Z,0.83
2023-05-09T13:13:58.097Z,0.77
2023-05-09T13:16:26.897Z,0.70
2023-05-09T13:18:55.267Z,0.67
2023-05-09T13:21:23.604Z,0.50
2023-05-09T13:23:52.197Z,0.50
2023-05-09T13:26:22.446Z,0.60
2023-05-09T13:28:50.759Z,0.50
2023-05-09T13:31:20.087Z,0.83
2023-05-09T13:33:50.048Z,0.60
2023-05-09T13:36:20.059Z,0.63
2023-05-09T13:38:48.449Z,0.70
2023-05-09T13:41:20.768Z,0.70
2023-05-09T13:43:50.509Z,0.60
2023-05-09T13:46:18.803Z,0.53
2023-05-09T13:48:47.804Z,0.50
2023-05-09T13:51:16.095Z,0.53
2023-05-09T13:53:44.367Z,0.50
2023-05-09T13:56:12.728Z,0.80
2023-05-09T13:58:40.995Z,0.53
2023-05-09T14:01:11.393Z,0.70
2023-05-09T14:03:40.136Z,0.73
2023-05-09T14:06:09.316Z,0.70
2023-05-09T14:08:37.719Z,0.80
2023-05-09T14:11:07.524Z,0.80
2023-05-09T14:13:35.794Z,1.80
2023-05-09T14:16:04.954Z,1.37
2023-05-09T14:18:35.266Z,3.23
2023-05-09T14:21:03.552Z,6.53
2023-05-09T14:23:31.811Z,4.20
2023-05-09T14:26:00.093Z,2.70
2023-05-09T14:28:28.365Z,2.33
2023-05-09T14:30:57.400Z,2.20
2023-05-09T14:33:25.803Z,1.90
2023-05-09T14:35:55.440Z,2.20
2023-05-09T14:38:23.740Z,1.97
2023-05-09T14:40:52.025Z,2.10
2023-05-09T14:43:21.566Z,2.10
2023-05-09T14:45:49.887Z,2.00
2023-05-09T14:48:18.148Z,2.47
2023-05-09T14:50:46.487Z,1.43
2023-05-09T14:53:16.431Z,1.60
2023-05-09T14:55:44.741Z,1.53
2023-05-09T14:58:14.328Z,1.60
2023-05-09T15:00:42.688Z,1.47
2023-05-09T15:03:11.125Z,1.37
2023-05-09T15:05:39.466Z,1.20
2023-05-09T15:08:08.006Z,1.53
2023-05-09T15:10:39.748Z,1.30
2023-05-09T15:13:08.119Z,1.10
2023-05-09T15:15:38.334Z,1.10
2023-05-09T15:18:10.009Z,1.57
2023-05-09T15:20:38.337Z,1.17
2023-05-09T15:23:07.840Z,1.30
2023-05-09T15:25:37.726Z,1.40
2023-05-09T15:28:07.032Z,1.60
2023-05-09T15:30:38.159Z,1.20
2023-05-09T15:33:07.505Z,0.90
2023-05-09T15:35:35.969Z,1.50
2023-05-09T15:38:04.435Z,1.50
2023-05-09T15:40:32.745Z,1.47
2023-05-09T15:43:07.948Z,1.00
2023-05-09T15:45:37.900Z,1.20
2023-05-09T15:48:06.907Z,1.70
2023-05-09T15:50:35.303Z,1.00
2023-05-09T15:53:03.651Z,1.10
2023-05-09T15:55:32.851Z,0.80
2023-05-09T15:58:02.827Z,0.97
2023-05-09T16:00:31.201Z,0.97
2023-05-09T16:02:59.876Z,0.73
2023-05-09T16:05:28.271Z,0.90
2023-05-09T16:07:56.596Z,0.70
2023-05-09T16:10:24.995Z,0.70
2023-05-09T16:12:53.287Z,0.90
2023-05-09T16:15:23.169Z,0.60
2023-05-09T16:17:51.538Z,1.13
2023-05-09T16:20:19.901Z,0.80
2023-05-09T16:22:48.185Z,1.10
2023-05-09T16:25:16.622Z,0.40
2023-05-09T16:27:45.044Z,0.60
2023-05-09T16:30:14.129Z,0.97
2023-05-09T16:32:44.434Z,0.70
2023-05-09T16:35:12.785Z,0.50
2023-05-09T16:37:41.065Z,0.97
2023-05-09T16:40:10.006Z,1.00
2023-05-09T16:42:39.901Z,0.70
2023-05-09T16:45:10.186Z,0.70
2023-05-09T16:47:38.497Z,0.70
2023-05-09T16:50:10.302Z,0.70
2023-05-09T16:52:38.609Z,0.87
2023-05-09T16:55:07.347Z,0.63
2023-05-09T16:57:35.623Z,0.60
2023-05-09T17:00:04.271Z,0.90
2023-05-09T17:02:32.570Z,0.50
2023-05-09T17:05:00.883Z,0.50
2023-05-09T17:07:30.768Z,0.70
2023-05-09T17:09:59.245Z,0.70
2023-05-09T17:12:27.700Z,0.50
2023-05-09T17:14:56.028Z,0.83
2023-05-09T17:17:24.317Z,0.40
2023-05-09T17:19:52.863Z,0.53
2023-05-09T17:22:21.151Z,0.60
2023-05-09T17:24:50.854Z,0.70
2023-05-09T17:27:19.212Z,0.80
2023-05-09T17:29:47.551Z,0.77
2023-05-09T17:32:16.249Z,0.80
2023-05-09T17:34:44.597Z,0.53
2023-05-09T17:37:12.983Z,0.73
2023-05-09T17:39:42.295Z,0.60
2023-05-09T17:42:12.431Z,0.70
2023-05-09T17:44:42.491Z,0.40
2023-05-09T17:47:14.033Z,0.80
2023-05-09T17:49:42.490Z,0.63
2023-05-09T17:52:10.729Z,0.80
2023-05-09T17:54:39.063Z,0.63
2023-05-09T17:57:07.448Z,0.60
2023-05-09T17:59:40.414Z,0.90
2023-05-09T18:02:08.840Z,0.80
2023-05-09T18:04:37.166Z,1.47
2023-05-09T18:07:05.653Z,2.13
2023-05-09T18:09:34.029Z,1.63
2023-05-09T18:12:02.309Z,2.60
2023-05-09T18:14:30.627Z,3.77
2023-05-09T18:17:00.258Z,5.27
2023-05-09T18:19:28.583Z,6.67
2023-05-09T18:21:56.963Z,10.20
2023-05-09T18:24:25.275Z,11.50
2023-05-09T18:26:53.566Z,12.57
2023-05-09T18:29:22.013Z,11.30
2023-05-09T18:31:50.587Z,11.30
2023-05-09T18:34:20.675Z,10.60
2023-05-09T18:36:49.923Z,10.23
2023-05-09T18:39:18.308Z,8.63
2023-05-09T18:41:46.948Z,7.13
2023-05-09T18:44:15.293Z,7.27
2023-05-09T18:46:43.610Z,7.33
2023-05-09T18:49:12.190Z,6.17
2023-05-09T18:51:41.890Z,5.97
2023-05-09T18:54:10.215Z,6.43
2023-05-09T18:56:41.695Z,5.50
2023-05-09T18:59:12.342Z,6.10
2023-05-09T19:01:42.438Z,5.50
2023-05-09T19:04:10.865Z,4.80
2023-05-09T19:06:39.319Z,5.53
2023-05-09T19:09:09.021Z,6.97
2023-05-09T19:11:37.301Z,17.07
2023-05-09T19:14:05.629Z,14.53
2023-05-09T19:16:34.076Z,8.00
2023-05-09T19:19:02.513Z,13.80
2023-05-09T19:21:30.798Z,20.20
2023-05-09T19:23:59.092Z,11.43
2023-05-09T19:26:28.718Z,12.33
2023-05-09T19:28:57.075Z,10.93
2023-05-09T19:31:25.687Z,10.63
2023-05-09T19:33:54.120Z,10.47
2023-05-09T19:36:22.460Z,8.57
2023-05-09T19:38:50.808Z,7.87
2023-05-09T19:41:19.141Z,8.33
2023-05-09T19:43:51.241Z,7.00
2023-05-09T19:46:19.656Z,7.07
2023-05-09T19:48:48.015Z,7.03
2023-05-09T19:51:16.316Z,6.77
2023-05-09T19:53:44.614Z,6.53
2023-05-09T19:56:12.893Z,5.53
2023-05-09T19:58:41.232Z,5.10
2023-05-09T20:01:10.935Z,4.77
2023-05-09T20:03:40.959Z,5.10
2023-05-09T20:06:09.648Z,4.40
2023-05-09T20:08:37.981Z,4.63
2023-05-09T20:11:07.445Z,4.57
2023-05-09T20:13:35.822Z,3.40
2023-05-09T20:16:04.230Z,4.03
2023-05-09T20:18:34.275Z,3.30
2023-05-09T20:21:02.663Z,4.23
2023-05-09T20:23:31.111Z,4.23
2023-05-09T20:25:59.383Z,3.90
2023-05-09T20:28:27.751Z,3.37
2023-05-09T20:30:56.125Z,4.23
2023-05-09T20:33:24.422Z,3.17
2023-05-09T20:35:54.174Z,3.20
2023-05-09T20:38:22.535Z,3.07
2023-05-09T20:40:51.006Z,3.60
2023-05-09T20:43:19.329Z,3.53
2023-05-09T20:45:47.712Z,4.50
2023-05-09T20:48:16.067Z,4.17
2023-05-09T20:50:44.403Z,4.10
2023-05-09T20:53:14.060Z,3.90
2023-05-09T20:55:42.316Z,3.90
2023-05-09T20:58:14.488Z,3.93
2023-05-09T21:00:42.827Z,3.30
2023-05-09T21:03:11.276Z,3.93
2023-05-09T21:05:39.663Z,3.80
2023-05-09T21:08:07.952Z,3.10
2023-05-09T21:10:37.602Z,3.77
2023-05-09T21:13:05.995Z,2.53
2023-05-09T21:15:34.291Z,2.90
2023-05-09T21:18:02.608Z,2.70
2023-05-09T21:20:30.987Z,2.97
2023-05-09T21:22:59.292Z,2.40
2023-05-09T21:25:27.587Z,2.30
2023-05-09T21:27:57.358Z,2.60
2023-05-09T21:30:25.897Z,3.00
2023-05-09T21:32:54.213Z,2.70
2023-05-09T21:35:22.559Z,2.40
2023-05-09T21:37:52.638Z,2.37
2023-05-09T21:40:21.076Z,2.50
2023-05-09T21:42:49.409Z,2.40
2023-05-09T21:45:19.427Z,2.30
2023-05-09T21:47:47.804Z,1.83
2023-05-09T21:50:16.458Z,2.53
2023-05-09T21:52:44.896Z,2.60
2023-05-09T21:55:13.156Z,2.20
2023-05-09T21:57:41.449Z,2.23
2023-05-09T22:00:14.280Z,1.83
2023-05-09T22:02:44.262Z,2.40
2023-05-09T22:05:12.741Z,2.07
2023-05-09T22:07:41.023Z,1.90
2023-05-09T22:10:09.969Z,1.50
2023-05-09T22:12:38.244Z,1.67
2023-05-09T22:15:07.039Z,2.10
2023-05-09T22:17:35.374Z,1.83
2023-05-09T22:20:05.832Z,1.60
2023-05-09T22:22:34.299Z,1.73
2023-05-09T22:25:02.617Z,1.80
2023-05-09T22:27:31.014Z,1.47
2023-05-09T22:29:59.305Z,1.83
2023-05-09T22:32:27.613Z,1.80
2023-05-09T22:34:55.900Z,1.33
2023-05-09T22:37:25.647Z,1.80
2023-05-09T22:39:53.950Z,1.53
2023-05-09T22:42:22.209Z,1.30
2023-05-09T22:44:50.733Z,1.73
2023-05-09T22:47:19.044Z,1.37
2023-05-09T22:49:47.292Z,1.67
2023-05-09T22:52:15.536Z,1.47
2023-05-09T22:54:45.198Z,1.47
2023-05-09T22:57:13.968Z,1.60
2023-05-09T22:59:42.257Z,1.47
2023-05-09T23:02:10.572Z,1.10
2023-05-09T23:04:38.865Z,1.27
2023-05-09T23:07:07.469Z,1.77
2023-05-09T23:09:35.830Z,1.30
2023-05-09T23:12:05.739Z,1.73
2023-05-09T23:14:34.110Z,1.50
2023-05-09T23:17:02.417Z,1.50
2023-05-09T23:19:30.712Z,1.53
2023-05-09T23:21:59.405Z,1.60
2023-05-09T23:24:27.799Z,1.40
2023-05-09T23:26:56.102Z,1.40
2023-05-09T23:29:26.187Z,1.20
2023-05-09T23:31:54.467Z,1.23
2023-05-09T23:34:22.730Z,1.13
2023-05-09T23:36:51.073Z,1.40
2023-05-09T23:39:19.555Z,1.47
2023-05-09T23:41:48.107Z,1.13
2023-05-09T23:44:16.455Z,0.93
2023-05-09T23:46:46.126Z,1.17
2023-05-09T23:49:14.634Z,1.20
2023-05-09T23:51:42.930Z,1.40
2023-05-09T23:54:11.239Z,1.67
2023-05-09T23:56:39.621Z,1.60
2023-05-09T23:59:07.974Z,1.00
